Time;durP1;ratioP1;P1;durP2;ratioP2;P2;SDS_P1;SDS_P2;PMS_P1;PMS_P2;Temp;Humidity;BMP_temperature;BMP_pressure;BME280_temperature;BME280_humidity;BME280_pressure;Samples;Min_cycle;Max_cycle;Signal;HPM_P1;HPM_P2
2022/06/24 00:01:18;;;;;;;10.03;7.10;;;18.40;99.90;;;;;;4884516;29;20202;-80
2022/06/24 00:03:46;;;;;;;6.97;6.47;;;18.40;99.90;;;;;;4884059;29;20710;-80
2022/06/24 00:06:14;;;;;;;7.57;6.97;;;18.50;99.90;;;;;;4904244;29;20467;-80
2022/06/24 00:08:52;;;;;;;7.30;6.73;;;18.50;99.90;;;;;;4904907;29;20310;-80
2022/06/24 00:11:25;;;;;;;7.77;6.37;;;18.50;99.90;;;;;;4898482;29;20272;-80
2022/06/24 00:13:52;;;;;;;7.10;6.33;;;18.50;99.90;;;;;;4904729;29;20208;-80
2022/06/24 00:16:19;;;;;;;6.63;6.03;;;18.50;99.90;;;;;;4905166;29;20197;-80
2022/06/24 00:18:46;;;;;;;7.00;6.30;;;18.50;99.90;;;;;;4887151;29;20252;-80
2022/06/24 00:21:14;;;;;;;6.27;5.67;;;18.40;99.90;;;;;;4903923;29;20591;-80
2022/06/24 00:23:42;;;;;;;6.17;5.50;;;18.20;99.90;;;;;;4904191;29;20236;-80
2022/06/24 00:26:11;;;;;;;8.33;6.07;;;18.30;99.90;;;;;;4904052;29;20225;-80
2022/06/24 00:28:39;;;;;;;6.03;5.40;;;18.30;99.90;;;;;;4888215;29;20588;-80
2022/06/24 00:31:07;;;;;;;8.93;6.47;;;18.20;99.90;;;;;;4918558;29;20613;-80
2022/06/24 00:33:36;;;;;;;7.80;7.03;;;18.20;99.90;;;;;;4887331;29;20251;-80
2022/06/24 00:36:06;;;;;;;7.77;7.17;;;18.20;99.90;;;;;;4887352;29;20216;-80
2022/06/24 00:38:34;;;;;;;7.77;7.17;;;18.20;99.90;;;;;;4904619;29;20196;-80
2022/06/24 00:41:03;;;;;;;8.43;7.63;;;18.30;99.90;;;;;;4904401;29;20268;-80
2022/06/24 00:43:33;;;;;;;8.33;7.63;;;18.30;99.90;;;;;;4905060;29;20228;-80
2022/06/24 00:46:07;;;;;;;10.47;9.67;;;18.30;99.90;;;;;;4888447;29;20209;-80
2022/06/24 00:48:38;;;;;;;10.63;9.70;;;18.20;99.90;;;;;;4887578;29;20229;-80
2022/06/24 00:51:07;;;;;;;11.40;10.40;;;18.20;99.90;;;;;;4904893;29;20205;-80
2022/06/24 00:53:43;;;;;;;10.33;9.47;;;18.20;99.90;;;;;;4887091;29;20238;-80
2022/06/24 00:56:11;;;;;;;9.77;8.90;;;18.10;99.90;;;;;;4887258;29;20215;-80
2022/06/24 00:58:38;;;;;;;10.20;9.10;;;18.10;99.90;;;;;;4887421;29;20229;-80
2022/06/24 01:01:07;;;;;;;9.77;9.10;;;18.10;99.90;;;;;;4886964;29;20273;-80
2022/06/24 01:03:39;;;;;;;10.40;9.40;;;18.10;99.90;;;;;;4887174;29;20629;-80
2022/06/24 01:06:06;;;;;;;9.80;9.03;;;18.00;99.90;;;;;;4919494;29;20207;-80
2022/06/24 01:08:33;;;;;;;9.80;9.10;;;18.00;99.90;;;;;;4887194;29;20220;-80
2022/06/24 01:11:00;;;;;;;9.73;9.00;;;17.90;99.90;;;;;;4904554;29;20283;-80
2022/06/24 01:13:27;;;;;;;10.13;9.27;;;17.90;99.90;;;;;;4904246;29;20733;-80
2022/06/24 01:15:54;;;;;;;10.40;9.40;;;17.90;99.90;;;;;;4887431;29;20209;-80
2022/06/24 01:18:23;;;;;;;9.97;9.07;;;18.00;99.90;;;;;;4886558;29;20221;-80
2022/06/24 01:20:50;;;;;;;9.90;9.00;;;18.00;99.90;;;;;;4887671;29;20201;-80
2022/06/24 01:23:24;;;;;;;8.90;8.17;;;17.90;99.90;;;;;;4903740;29;20243;-80
2022/06/24 01:25:52;;;;;;;9.47;8.40;;;18.00;99.90;;;;;;4886954;29;20280;-80
2022/06/24 01:28:18;;;;;;;10.27;9.20;;;17.90;99.90;;;;;;4904594;29;20212;-80
2022/06/24 01:30:45;;;;;;;9.40;8.50;;;18.00;99.90;;;;;;4918788;29;20215;-80
2022/06/24 01:33:12;;;;;;;9.27;8.47;;;18.00;99.90;;;;;;4904182;29;20216;-80
2022/06/24 01:35:39;;;;;;;9.97;7.70;;;18.00;99.90;;;;;;4887640;29;20237;-80
2022/06/24 01:38:06;;;;;;;8.03;7.40;;;18.00;99.90;;;;;;4887310;29;20205;-80
2022/06/24 01:40:34;;;;;;;8.33;6.90;;;17.90;99.90;;;;;;4904034;29;20263;-80
2022/06/24 01:43:02;;;;;;;6.97;6.47;;;17.90;99.90;;;;;;4904362;29;20232;-80
2022/06/24 01:45:28;;;;;;;6.17;5.67;;;17.90;99.90;;;;;;4904178;29;20665;-80
2022/06/24 01:47:55;;;;;;;7.10;6.40;;;17.90;99.90;;;;;;4886965;29;20299;-80
2022/06/24 01:50:22;;;;;;;7.33;6.63;;;17.90;99.90;;;;;;4886597;29;20212;-80
2022/06/24 01:52:49;;;;;;;6.80;6.10;;;17.90;99.90;;;;;;4885970;29;20263;-80
2022/06/24 01:55:15;;;;;;;7.37;6.73;;;17.90;99.90;;;;;;4886233;29;20551;-80
2022/06/24 01:57:44;;;;;;;6.67;6.10;;;17.90;99.90;;;;;;4887223;29;20218;-80
2022/06/24 02:00:11;;;;;;;7.43;6.73;;;17.90;99.90;;;;;;4903997;29;20265;-80
2022/06/24 02:02:38;;;;;;;7.13;6.63;;;17.90;99.90;;;;;;4887147;29;20261;-80
2022/06/24 02:05:06;;;;;;;7.07;6.47;;;17.80;99.90;;;;;;4903790;29;20201;-80
2022/06/24 02:07:33;;;;;;;7.57;6.10;;;17.80;99.90;;;;;;4903893;29;20232;-80
2022/06/24 02:15:29;;;;;;;7.23;6.23;;;17.60;99.90;;;;;;4898411;29;20759;-80
2022/06/24 02:17:56;;;;;;;5.87;5.43;;;17.60;99.90;;;;;;4886545;29;20207;-80
2022/06/24 02:20:23;;;;;;;6.17;5.67;;;17.60;99.90;;;;;;4903192;29;20272;-80
2022/06/24 02:22:50;;;;;;;7.03;6.07;;;17.60;99.90;;;;;;4881196;29;20304;-79
2022/06/24 02:25:17;;;;;;;7.40;6.63;;;17.50;99.90;;;;;;4881985;29;20260;-80
2022/06/24 02:27:46;;;;;;;7.17;6.50;;;17.60;99.90;;;;;;4899178;29;20286;-80
2022/06/24 02:30:13;;;;;;;6.43;5.93;;;17.60;99.90;;;;;;4899090;29;20224;-81
2022/06/24 02:32:40;;;;;;;7.20;6.50;;;17.60;99.90;;;;;;4882592;29;20233;-80
2022/06/24 02:35:07;;;;;;;6.67;5.70;;;17.60;99.90;;;;;;4896585;29;20228;-80
2022/06/24 02:37:34;;;;;;;6.60;6.00;;;17.60;99.90;;;;;;4879954;29;20587;-81
2022/06/24 02:40:45;;;;;;;6.73;6.07;;;17.60;99.90;;;;;;4880682;29;20203;-82
2022/06/24 02:42:54;;;;;;;6.30;5.80;;;17.60;99.90;;;;;;4890163;29;20315;-82
2022/06/24 02:45:21;;;;;;;6.00;5.50;;;17.60;99.90;;;;;;4879369;29;20208;-82
2022/06/24 02:47:48;;;;;;;6.63;5.80;;;17.50;99.90;;;;;;4896210;29;20710;-81
2022/06/24 02:50:15;;;;;;;6.23;5.73;;;17.50;99.90;;;;;;4879444;29;20224;-82
2022/06/24 02:52:42;;;;;;;6.87;6.30;;;17.50;99.90;;;;;;4910581;29;20228;-81
2022/06/24 02:55:10;;;;;;;6.43;5.93;;;17.50;99.90;;;;;;4910942;29;20204;-82
2022/06/24 02:57:36;;;;;;;6.30;5.70;;;17.40;99.90;;;;;;4896149;29;20679;-81
2022/06/24 03:00:06;;;;;;;7.90;6.67;;;17.40;99.90;;;;;;4895925;29;20264;-81
2022/06/24 03:02:33;;;;;;;7.00;6.40;;;17.40;99.90;;;;;;4896998;29;20236;-81
2022/06/24 03:05:00;;;;;;;6.70;6.10;;;17.30;99.90;;;;;;4882933;29;20685;-81
2022/06/24 03:07:28;;;;;;;6.83;6.13;;;17.30;99.90;;;;;;4897164;29;20214;-82
2022/06/24 03:09:54;;;;;;;6.93;6.23;;;17.30;99.90;;;;;;4914276;29;20272;-82
2022/06/24 03:12:21;;;;;;;6.50;6.00;;;17.30;99.90;;;;;;4884643;29;20232;-80
2022/06/24 03:14:48;;;;;;;6.93;6.20;;;17.20;99.90;;;;;;4901820;29;20202;-80
2022/06/24 03:17:16;;;;;;;8.27;7.70;;;17.20;99.90;;;;;;4899644;29;20211;-81
2022/06/24 03:19:43;;;;;;;9.40;8.57;;;17.20;99.90;;;;;;4888276;29;20290;-82
2022/06/24 03:22:10;;;;;;;8.90;8.30;;;17.20;99.90;;;;;;4882930;29;20272;-82
2022/06/24 03:24:36;;;;;;;9.07;8.37;;;17.10;99.90;;;;;;4915224;29;20616;-82
2022/06/24 03:27:04;;;;;;;9.30;8.60;;;17.10;99.90;;;;;;4901437;29;20207;-81
2022/06/24 03:29:31;;;;;;;8.70;8.10;;;17.10;99.90;;;;;;4900823;29;20227;-80
2022/06/24 03:31:58;;;;;;;9.47;8.70;;;17.00;99.90;;;;;;4885226;29;20235;-81
2022/06/24 03:34:26;;;;;;;9.63;8.93;;;17.00;99.90;;;;;;4885776;29;20275;-80
2022/06/24 03:36:53;;;;;;;10.20;9.50;;;16.90;99.90;;;;;;4903648;29;20247;-80
2022/06/24 03:39:20;;;;;;;9.30;8.70;;;16.90;99.90;;;;;;4887037;29;20263;-79
2022/06/24 03:41:47;;;;;;;10.50;9.60;;;16.90;99.90;;;;;;4885124;29;20651;-80
2022/06/24 03:44:13;;;;;;;8.93;8.33;;;16.90;99.90;;;;;;4904042;29;20204;-81
2022/06/24 03:46:40;;;;;;;9.17;8.47;;;16.90;99.90;;;;;;4904572;29;20539;-81
2022/06/24 03:49:07;;;;;;;9.70;8.77;;;16.80;99.90;;;;;;4904678;29;20758;-81
2022/06/24 03:51:37;;;;;;;10.70;9.60;;;16.80;99.90;;;;;;4887557;29;20361;-80
2022/06/24 03:54:04;;;;;;;9.57;8.77;;;16.90;99.90;;;;;;4887110;29;20248;-81
2022/06/24 03:56:30;;;;;;;9.37;8.67;;;16.80;99.90;;;;;;4888096;29;20209;-80
2022/06/24 03:58:58;;;;;;;9.33;8.43;;;16.90;99.90;;;;;;4904844;29;20213;-80
2022/06/24 04:01:25;;;;;;;10.37;9.47;;;16.90;99.90;;;;;;4904469;29;20232;-80
2022/06/24 04:03:52;;;;;;;9.70;8.90;;;16.90;99.90;;;;;;4887149;29;20205;-81
2022/06/24 04:06:19;;;;;;;10.63;9.10;;;17.00;99.90;;;;;;4903786;29;20279;-80
2022/06/24 04:08:47;;;;;;;9.93;9.23;;;17.00;99.90;;;;;;4918746;29;20226;-81
2022/06/24 04:11:16;;;;;;;8.70;8.00;;;17.00;99.90;;;;;;4887268;29;20232;-80
2022/06/24 04:13:44;;;;;;;9.10;8.40;;;17.00;99.90;;;;;;4886767;29;20617;-80
2022/06/24 04:16:11;;;;;;;9.50;8.70;;;17.00;99.90;;;;;;4896399;29;20202;-81
2022/06/24 04:18:38;;;;;;;9.17;8.47;;;17.00;99.90;;;;;;4886948;29;20206;-81
2022/06/24 04:21:11;;;;;;;8.97;8.37;;;17.00;99.90;;;;;;4886574;29;20239;-81
2022/06/24 04:23:38;;;;;;;9.40;8.60;;;17.10;99.90;;;;;;4887610;29;20237;-80
2022/06/24 04:26:06;;;;;;;9.73;9.03;;;17.20;99.90;;;;;;4887165;29;20668;-80
2022/06/24 04:28:34;;;;;;;8.23;7.60;;;17.20;99.90;;;;;;4887966;29;20231;-80
2022/06/24 04:31:00;;;;;;;8.63;8.03;;;17.30;99.90;;;;;;4887692;29;20211;-81
2022/06/24 04:33:27;;;;;;;9.20;8.60;;;17.40;99.90;;;;;;4887250;29;20241;-80
2022/06/24 04:35:54;;;;;;;8.07;7.40;;;17.50;99.90;;;;;;4887420;29;20232;-81
2022/06/24 04:38:21;;;;;;;7.30;6.80;;;17.70;99.90;;;;;;4886166;29;20627;-81
2022/06/24 04:40:48;;;;;;;9.00;8.40;;;17.80;99.90;;;;;;4886374;29;20208;-81
2022/06/24 04:43:16;;;;;;;7.97;7.47;;;18.10;99.90;;;;;;4903412;29;20722;-81
2022/06/24 04:45:44;;;;;;;10.87;9.97;;;18.30;99.90;;;;;;4902392;29;20295;-81
2022/06/24 04:48:13;;;;;;;11.20;10.20;;;18.50;99.90;;;;;;4894617;29;20200;-81
2022/06/24 04:50:40;;;;;;;12.33;11.40;;;18.60;99.90;;;;;;4902690;29;20301;-80
2022/06/24 04:53:07;;;;;;;13.07;12.07;;;18.60;99.90;;;;;;4917137;29;20225;-80
2022/06/24 04:55:33;;;;;;;13.60;12.60;;;18.80;99.90;;;;;;4886398;29;20206;-80
2022/06/24 04:58:00;;;;;;;15.23;14.23;;;18.80;99.90;;;;;;4885431;29;20202;-80
2022/06/24 05:00:28;;;;;;;13.97;12.90;;;19.00;99.90;;;;;;4885232;29;20211;-80
2022/06/24 05:02:56;;;;;;;10.47;9.57;;;19.20;99.90;;;;;;4902347;29;20279;-81
2022/06/24 05:05:23;;;;;;;9.87;9.27;;;19.50;99.90;;;;;;4902283;29;20267;-81
2022/06/24 05:07:50;;;;;;;13.30;12.40;;;19.80;99.90;;;;;;4885273;29;20310;-81
2022/06/24 05:10:16;;;;;;;13.03;12.13;;;20.00;99.90;;;;;;4885029;29;20716;-80
2022/06/24 05:12:43;;;;;;;7.90;7.33;;;20.00;99.90;;;;;;4892311;29;20284;-81
2022/06/24 05:15:11;;;;;;;8.07;7.37;;;20.00;99.90;;;;;;4897609;29;20204;-81
2022/06/24 05:17:39;;;;;;;7.17;6.47;;;20.20;99.90;;;;;;4885864;29;20235;-80
2022/06/24 05:20:06;;;;;;;7.87;7.20;;;20.50;99.90;;;;;;4902234;29;20673;-81
2022/06/24 05:22:33;;;;;;;8.33;7.43;;;20.70;99.90;;;;;;4902423;29;20224;-81
2022/06/24 05:25:01;;;;;;;12.03;11.03;;;20.80;99.90;;;;;;4902873;29;20620;-80
2022/06/24 05:27:28;;;;;;;12.27;11.47;;;20.80;99.90;;;;;;4884884;29;20265;-81
2022/06/24 05:29:54;;;;;;;5.93;4.00;;;20.90;99.90;;;;;;4902029;29;20216;-81
2022/06/24 05:32:21;;;;;;;7.73;7.03;;;20.80;99.90;;;;;;4884971;29;20248;-80
2022/06/24 05:34:49;;;;;;;9.67;9.00;;;20.90;99.90;;;;;;4901842;29;20212;-81
2022/06/24 05:37:16;;;;;;;11.53;10.83;;;21.10;99.90;;;;;;4902440;29;20200;-81
2022/06/24 05:39:43;;;;;;;10.87;10.10;;;21.40;99.90;;;;;;4902334;29;20201;-81
2022/06/24 05:42:10;;;;;;;9.30;8.60;;;21.90;99.90;;;;;;4890933;29;20656;-81
2022/06/24 05:44:37;;;;;;;13.10;12.10;;;22.60;99.90;;;;;;4902149;29;20276;-81
2022/06/24 05:47:04;;;;;;;12.97;12.13;;;23.40;99.90;;;;;;4885780;29;20204;-81
2022/06/24 05:49:31;;;;;;;12.07;11.13;;;24.10;99.90;;;;;;4902163;29;20232;-81
2022/06/24 05:51:59;;;;;;;12.17;11.20;;;24.70;99.90;;;;;;4902308;29;20856;-80
2022/06/24 05:57:10;;;;;;;11.73;10.73;;;25.50;99.90;;;;;;4880414;29;20204;-81
2022/06/24 05:59:38;;;;;;;12.50;11.43;;;26.00;99.90;;;;;;4902507;29;20200;-81
2022/06/24 06:02:06;;;;;;;11.63;10.70;;;26.40;99.90;;;;;;4918336;29;20233;-81
2022/06/24 06:04:33;;;;;;;11.70;10.80;;;26.80;99.90;;;;;;4902247;29;20205;-81
2022/06/24 06:07:02;;;;;;;10.80;10.00;;;27.10;99.90;;;;;;4901067;29;20436;-80
2022/06/24 06:09:29;;;;;;;11.03;9.93;;;27.40;99.90;;;;;;4884034;29;20310;-81
2022/06/24 06:11:57;;;;;;;8.87;7.93;;;27.60;99.90;;;;;;4915488;29;20232;-81
2022/06/24 06:14:24;;;;;;;9.00;8.10;;;27.70;99.90;;;;;;4901153;29;20208;-81
2022/06/24 06:16:51;;;;;;;10.47;9.57;;;27.70;99.90;;;;;;4901807;29;20239;-81
2022/06/24 06:19:18;;;;;;;9.83;8.63;;;27.80;99.90;;;;;;4884469;29;20678;-80
2022/06/24 06:21:45;;;;;;;8.23;7.53;;;28.00;99.90;;;;;;4900357;29;20280;-81
2022/06/24 06:24:13;;;;;;;8.70;7.90;;;28.10;99.90;;;;;;4885252;29;20731;-81
2022/06/24 06:26:40;;;;;;;9.17;7.57;;;28.40;99.90;;;;;;4886940;29;20208;-81
2022/06/24 06:29:06;;;;;;;7.93;7.23;;;28.30;99.90;;;;;;4915835;29;20200;-81
2022/06/24 06:31:33;;;;;;;8.43;7.60;;;28.50;99.90;;;;;;4885214;29;20228;-81
2022/06/24 06:34:00;;;;;;;8.23;7.20;;;28.20;99.90;;;;;;4902343;29;20205;-81
2022/06/24 06:36:27;;;;;;;7.97;7.30;;;28.00;99.90;;;;;;4884169;29;20769;-81
2022/06/24 06:38:54;;;;;;;7.53;6.83;;;28.10;99.90;;;;;;4901295;29;20635;-81
2022/06/24 06:41:22;;;;;;;7.77;7.07;;;28.50;99.90;;;;;;4916696;29;20249;-81
2022/06/24 06:43:48;;;;;;;7.97;7.10;;;28.80;99.90;;;;;;4917044;29;20220;-81
2022/06/24 06:46:15;;;;;;;7.50;6.80;;;28.70;99.90;;;;;;4885024;29;20228;-81
2022/06/24 06:48:42;;;;;;;7.20;6.60;;;28.90;99.90;;;;;;4884933;29;20638;-81
2022/06/24 06:51:09;;;;;;;8.90;6.70;;;29.00;99.90;;;;;;4877621;29;20244;-81
2022/06/24 06:53:36;;;;;;;7.20;6.60;;;29.00;99.90;;;;;;4902429;29;20585;-81
2022/06/24 06:56:03;;;;;;;8.80;8.13;;;29.40;99.90;;;;;;4917498;29;20252;-81
2022/06/24 06:58:32;;;;;;;7.77;7.17;;;29.60;99.90;;;;;;4901895;29;20212;-81
2022/06/24 07:00:58;;;;;;;9.20;8.40;;;29.90;99.90;;;;;;4902016;29;20216;-81
2022/06/24 07:03:25;;;;;;;8.70;7.90;;;29.20;99.90;;;;;;4900407;29;20305;-81
2022/06/24 07:05:52;;;;;;;8.73;8.13;;;28.70;99.90;;;;;;4884720;29;20260;-81
2022/06/24 07:08:19;;;;;;;7.53;7.03;;;28.90;99.90;;;;;;4901198;29;20200;-81
2022/06/24 07:10:46;;;;;;;8.00;7.30;;;29.50;99.90;;;;;;4883658;29;20355;-81
2022/06/24 07:13:13;;;;;;;8.67;8.00;;;29.70;99.90;;;;;;4884401;29;20636;-81
2022/06/24 07:15:41;;;;;;;9.07;8.27;;;29.40;99.90;;;;;;4886828;29;20204;-81
2022/06/24 07:18:09;;;;;;;9.03;8.17;;;28.80;99.90;;;;;;4902199;29;20233;-81
2022/06/24 07:20:35;;;;;;;7.80;7.20;;;27.90;99.90;;;;;;4905046;29;20570;-81
2022/06/24 07:23:02;;;;;;;8.13;7.53;;;27.30;99.90;;;;;;4888050;29;20836;-81
2022/06/24 07:25:31;;;;;;;7.90;7.20;;;26.90;99.90;;;;;;4887360;29;20216;-82
2022/06/24 07:27:57;;;;;;;8.70;8.00;;;26.60;99.90;;;;;;4906201;29;20552;-81
2022/06/24 07:30:24;;;;;;;9.43;8.77;;;26.50;99.90;;;;;;4889464;29;20237;-81
2022/06/24 07:32:52;;;;;;;9.27;8.47;;;27.00;99.90;;;;;;4889383;29;20220;-81
2022/06/24 07:35:19;;;;;;;9.37;8.60;;;27.20;99.90;;;;;;4907004;29;20226;-81
2022/06/24 07:37:46;;;;;;;8.70;8.10;;;27.10;99.90;;;;;;4888257;29;20205;-80
2022/06/24 07:40:15;;;;;;;8.63;7.90;;;26.60;99.90;;;;;;4893260;29;20212;-81
2022/06/24 07:42:42;;;;;;;9.10;8.30;;;26.20;99.90;;;;;;4912192;29;20224;-81
2022/06/24 07:45:10;;;;;;;13.93;8.33;;;25.90;99.90;;;;;;4894300;29;20201;-81
2022/06/24 07:47:37;;;;;;;7.57;6.97;;;25.60;99.90;;;;;;4890036;29;20482;-81
2022/06/24 07:50:06;;;;;;;8.17;7.57;;;25.30;99.90;;;;;;4918776;29;20224;-81
2022/06/24 07:52:33;;;;;;;8.33;7.73;;;25.10;99.90;;;;;;4887149;29;20221;-81
2022/06/24 07:57:45;;;;;;;8.33;7.67;;;24.90;99.90;;;;;;4887294;29;20212;-81
2022/06/24 08:00:12;;;;;;;8.50;7.70;;;24.80;99.90;;;;;;4904728;29;20224;-81
2022/06/24 08:02:39;;;;;;;8.17;7.47;;;24.70;99.90;;;;;;4887786;29;20228;-81
2022/06/24 08:05:08;;;;;;;7.60;7.00;;;24.70;99.90;;;;;;4888017;29;20678;-81
2022/06/24 08:07:35;;;;;;;7.90;7.20;;;24.80;99.90;;;;;;4905448;29;20232;-81
2022/06/24 08:10:02;;;;;;;7.60;7.00;;;24.60;99.90;;;;;;4904045;29;20213;-81
2022/06/24 08:12:28;;;;;;;8.03;7.50;;;24.60;99.90;;;;;;4904494;29;20729;-81
2022/06/24 08:14:55;;;;;;;7.47;6.87;;;24.60;99.90;;;;;;4904710;29;20204;-81
2022/06/24 08:17:22;;;;;;;6.87;6.47;;;24.90;99.90;;;;;;4888541;29;20229;-81
2022/06/24 08:19:49;;;;;;;7.40;6.63;;;25.10;99.90;;;;;;4904656;29;20209;-81
2022/06/24 08:22:17;;;;;;;7.40;6.90;;;25.60;99.90;;;;;;4887579;29;20592;-81
2022/06/24 08:24:44;;;;;;;7.40;6.70;;;26.30;99.90;;;;;;4886478;29;20201;-81
2022/06/24 08:27:11;;;;;;;7.70;7.10;;;26.90;99.90;;;;;;4885395;29;20222;-81
2022/06/24 08:29:37;;;;;;;7.37;6.80;;;27.30;99.90;;;;;;4887146;29;20212;-81
2022/06/24 08:32:05;;;;;;;6.10;5.60;;;27.60;99.90;;;;;;4904641;29;20240;-81
2022/06/24 08:34:32;;;;;;;8.50;7.90;;;27.70;99.90;;;;;;4904532;29;20488;-81
2022/06/24 08:36:59;;;;;;;8.00;7.20;;;27.70;99.90;;;;;;4904319;29;20334;-81
2022/06/24 08:39:27;;;;;;;7.37;5.10;;;27.70;99.90;;;;;;4886419;29;20208;-81
2022/06/24 08:41:57;;;;;;;2.77;2.53;;;28.10;99.90;;;;;;4886867;29;20220;-81
2022/06/24 08:44:24;;;;;;;2.93;2.63;;;29.00;99.90;;;;;;4887053;29;20231;-81
2022/06/24 08:46:51;;;;;;;3.00;2.70;;;29.80;99.90;;;;;;4886732;29;20205;-81
2022/06/24 08:49:18;;;;;;;5.20;3.10;;;30.10;99.90;;;;;;4887190;29;20193;-81
2022/06/24 08:51:47;;;;;;;7.03;4.23;;;29.50;99.90;;;;;;4886569;29;20225;-81
2022/06/24 08:54:17;;;;;;;3.43;3.13;;;29.50;99.90;;;;;;4887146;29;20292;-81
2022/06/24 08:56:45;;;;;;;5.13;2.93;;;29.50;99.90;;;;;;4901623;29;20622;-81
2022/06/24 08:59:12;;;;;;;4.93;3.13;;;29.80;99.90;;;;;;4886288;29;20626;-81
2022/06/24 09:01:40;;;;;;;5.90;2.87;;;30.00;99.90;;;;;;4882834;29;20204;-81
2022/06/24 09:04:07;;;;;;;7.80;7.10;;;29.70;99.90;;;;;;4886648;29;20658;-81
2022/06/24 09:06:38;;;;;;;8.33;7.63;;;30.10;99.90;;;;;;4887096;29;20212;-81
2022/06/24 09:09:05;;;;;;;8.10;7.50;;;30.40;99.90;;;;;;4903825;29;20197;-81
2022/06/24 09:11:37;;;;;;;7.53;6.83;;;30.20;99.90;;;;;;4903585;29;20228;-81
2022/06/24 09:14:06;;;;;;;7.27;6.67;;;30.30;99.90;;;;;;4888334;29;20308;-82
2022/06/24 09:16:36;;;;;;;7.57;6.87;;;30.30;99.90;;;;;;4903972;29;20201;-81
2022/06/24 09:19:05;;;;;;;7.73;7.17;;;30.40;99.90;;;;;;4885907;29;20208;-81
2022/06/24 09:21:38;;;;;;;8.20;7.50;;;30.20;99.90;;;;;;4902621;29;20201;-81
2022/06/24 09:24:05;;;;;;;7.93;7.20;;;30.40;99.90;;;;;;4902248;29;20233;-81
2022/06/24 09:26:34;;;;;;;7.47;6.80;;;30.60;99.90;;;;;;4902912;29;20248;-81
2022/06/24 09:29:03;;;;;;;8.07;7.47;;;30.50;99.90;;;;;;4885668;29;20205;-81
2022/06/24 09:31:32;;;;;;;8.10;7.40;;;30.60;99.90;;;;;;4880759;29;20262;-81
2022/06/24 09:34:07;;;;;;;4.40;3.67;;;30.70;99.90;;;;;;4902408;29;20233;-81
2022/06/24 09:36:35;;;;;;;4.83;4.17;;;31.00;99.90;;;;;;4885606;29;20641;-81
2022/06/24 09:39:05;;;;;;;4.00;2.70;;;31.20;99.90;;;;;;4885295;29;20230;-81
2022/06/24 09:41:41;;;;;;;6.27;5.80;;;31.40;99.90;;;;;;4902208;29;20200;-81
2022/06/24 09:44:09;;;;;;;3.30;2.93;;;31.30;99.90;;;;;;4902817;29;20200;-81
2022/06/24 09:46:37;;;;;;;3.63;3.00;;;31.10;99.90;;;;;;4886022;29;20493;-81
2022/06/24 09:49:05;;;;;;;3.60;2.73;;;31.00;99.90;;;;;;4917707;29;20224;-81
2022/06/24 09:51:33;;;;;;;3.87;2.67;;;31.10;99.90;;;;;;4918421;29;20244;-81
2022/06/24 09:54:00;;;;;;;3.23;2.90;;;31.00;99.90;;;;;;4883609;29;20216;-81
2022/06/24 09:56:28;;;;;;;6.87;6.27;;;30.40;99.90;;;;;;4881292;29;20554;-81
2022/06/24 10:01:43;;;;;;;6.20;5.70;;;29.40;99.90;;;;;;4903293;29;20193;-82
2022/06/24 10:04:13;;;;;;;4.53;2.90;;;28.90;99.90;;;;;;4901061;29;20666;-81
2022/06/24 10:06:44;;;;;;;7.40;6.80;;;28.80;99.90;;;;;;4886265;29;20287;-81
2022/06/24 10:09:11;;;;;;;2.40;2.27;;;28.80;99.90;;;;;;4896385;29;20188;-81
2022/06/24 10:11:45;;;;;;;2.50;2.30;;;28.80;99.90;;;;;;4886436;29;20672;-81
2022/06/24 10:14:12;;;;;;;6.27;5.87;;;29.20;99.90;;;;;;4896638;29;20197;-81
2022/06/24 10:16:42;;;;;;;6.43;6.03;;;29.80;99.90;;;;;;4918557;29;20204;-81
2022/06/24 10:19:11;;;;;;;6.37;5.97;;;30.30;99.90;;;;;;4886911;29;20200;-81
2022/06/24 10:21:39;;;;;;;5.73;5.23;;;31.00;99.90;;;;;;4882338;29;20205;-81
2022/06/24 10:24:13;;;;;;;3.20;2.47;;;31.50;99.90;;;;;;4886430;29;20239;-83
2022/06/24 10:26:43;;;;;;;3.93;3.60;;;31.30;99.70;;;;;;4884136;29;20227;-81
2022/06/24 10:29:28;;;;;;;3.10;2.90;;;30.90;99.90;;;;;;4875928;29;20204;-82
2022/06/24 10:32:00;;;;;;;3.93;3.63;;;30.90;99.90;;;;;;4897947;29;20291;-81
2022/06/24 10:34:31;;;;;;;2.20;2.10;;;30.50;99.90;;;;;;4897944;29;20643;-81
2022/06/24 10:37:00;;;;;;;5.43;5.03;;;30.40;99.90;;;;;;4898067;29;20215;-81
2022/06/24 10:39:28;;;;;;;6.33;5.73;;;30.20;99.30;;;;;;4881042;29;20249;-81
2022/06/24 10:42:00;;;;;;;6.30;5.80;;;30.00;99.90;;;;;;4897728;29;20212;-81
2022/06/24 10:44:29;;;;;;;6.43;5.83;;;30.20;99.90;;;;;;4897798;29;20670;-81
2022/06/24 10:47:29;;;;;;;6.60;6.10;;;30.40;99.90;;;;;;4898255;29;20261;-81
2022/06/24 10:50:20;;;;;;;4.10;2.67;;;30.60;99.90;;;;;;4874020;29;20275;-81
2022/06/24 10:52:56;;;;;;;7.53;6.17;;;30.30;99.90;;;;;;4881170;29;20240;-81
2022/06/24 10:55:47;;;;;;;5.77;5.27;;;29.60;99.90;;;;;;4882051;29;20233;-82
2022/06/24 10:58:17;;;;;;;7.10;6.50;;;28.90;99.90;;;;;;4878616;29;20260;-81
2022/06/24 11:00:51;;;;;;;6.10;5.70;;;28.50;99.90;;;;;;4898788;29;20204;-81
2022/06/24 11:03:37;;;;;;;3.10;2.83;;;28.70;99.90;;;;;;4891754;29;20230;-81
2022/06/24 11:06:04;;;;;;;4.50;3.17;;;28.70;99.90;;;;;;4881662;29;20204;-81
2022/06/24 11:08:36;;;;;;;3.90;2.40;;;28.70;99.90;;;;;;4898149;29;20228;-81
2022/06/24 11:11:05;;;;;;;4.63;2.33;;;28.50;99.90;;;;;;4881763;29;20275;-81
2022/06/24 11:13:32;;;;;;;2.53;2.30;;;28.30;99.90;;;;;;4897977;29;20224;-81
2022/06/24 11:16:00;;;;;;;2.73;2.50;;;28.10;99.90;;;;;;4898941;29;20204;-81
2022/06/24 11:18:30;;;;;;;5.23;4.30;;;28.10;99.90;;;;;;4881744;29;20563;-81
2022/06/24 11:20:59;;;;;;;6.87;6.40;;;27.90;99.90;;;;;;4881853;29;20253;-81
2022/06/24 11:23:29;;;;;;;6.67;6.00;;;27.80;99.90;;;;;;4898984;29;20213;-81
2022/06/24 11:26:01;;;;;;;6.30;6.00;;;27.80;99.90;;;;;;4885535;29;20208;-81
2022/06/24 11:28:32;;;;;;;7.10;6.40;;;27.80;99.90;;;;;;4883379;29;20770;-81
2022/06/24 11:31:15;;;;;;;6.30;5.90;;;27.70;99.90;;;;;;4903175;29;20217;-81
2022/06/24 11:33:43;;;;;;;6.40;5.90;;;27.60;99.90;;;;;;4883664;29;20254;-82
2022/06/24 11:36:10;;;;;;;5.70;5.10;;;27.70;99.90;;;;;;4915488;29;20193;-80
2022/06/24 11:38:49;;;;;;;4.90;4.60;;;28.10;99.90;;;;;;4919820;29;20208;-80
2022/06/24 11:41:22;;;;;;;2.03;1.90;;;28.70;99.90;;;;;;4899354;29;20213;-80
2022/06/24 11:43:50;;;;;;;4.50;4.20;;;28.70;99.90;;;;;;4889077;29;20239;-80
2022/06/24 11:46:17;;;;;;;5.53;5.03;;;28.70;99.90;;;;;;4907158;29;20279;-80
2022/06/24 11:48:45;;;;;;;6.53;6.13;;;28.80;99.90;;;;;;4906679;29;20205;-79
2022/06/24 11:51:19;;;;;;;6.87;6.37;;;28.80;99.90;;;;;;4905975;29;20224;-80
2022/06/24 11:53:57;;;;;;;5.40;5.00;;;28.80;99.90;;;;;;4906784;29;20311;-80
2022/06/24 11:56:27;;;;;;;2.77;2.17;;;28.90;99.90;;;;;;4907073;29;20283;-80
2022/06/24 11:58:54;;;;;;;3.80;2.43;;;28.90;99.90;;;;;;4903213;29;20197;-81
2022/06/24 12:01:21;;;;;;;2.53;2.30;;;29.30;99.90;;;;;;4888138;29;20612;-80
2022/06/24 12:03:50;;;;;;;3.97;2.50;;;29.10;99.90;;;;;;4904736;29;20229;-81
2022/06/24 12:06:17;;;;;;;4.77;4.47;;;29.20;99.90;;;;;;4906817;29;20227;-80
2022/06/24 12:08:45;;;;;;;6.23;5.70;;;29.20;99.90;;;;;;4889189;29;20272;-80
2022/06/24 12:11:16;;;;;;;6.33;5.90;;;29.10;99.90;;;;;;4888804;29;20200;-81
2022/06/24 12:13:55;;;;;;;6.87;6.27;;;29.00;99.90;;;;;;4888623;29;20732;-80
2022/06/24 12:16:22;;;;;;;6.33;5.80;;;28.50;99.90;;;;;;4882601;29;20205;-80
2022/06/24 12:18:50;;;;;;;6.80;6.40;;;27.90;99.90;;;;;;4888544;29;20264;-80
2022/06/24 12:21:25;;;;;;;2.57;2.37;;;27.30;99.90;;;;;;4886458;29;20201;-81
2022/06/24 12:23:52;;;;;;;2.50;2.40;;;27.10;99.90;;;;;;4887978;29;20733;-81
2022/06/24 12:26:20;;;;;;;2.67;2.40;;;27.00;99.90;;;;;;4887114;29;20266;-80
2022/06/24 12:28:59;;;;;;;6.03;5.63;;;26.90;99.90;;;;;;4890620;29;20210;-80
2022/06/24 12:31:26;;;;;;;2.37;2.17;;;27.00;99.90;;;;;;4900721;29;20223;-81
2022/06/24 12:33:55;;;;;;;4.37;4.07;;;27.20;99.90;;;;;;4903923;29;20264;-81
2022/06/24 12:36:24;;;;;;;6.47;6.07;;;27.20;99.90;;;;;;4882626;29;20619;-80
2022/06/24 12:39:04;;;;;;;6.80;6.40;;;27.20;99.90;;;;;;4883345;29;20215;-84
2022/06/24 12:41:41;;;;;;;2.33;2.10;;;27.20;99.90;;;;;;4903432;29;20200;-81
2022/06/24 12:44:08;;;;;;;2.47;2.10;;;27.00;99.90;;;;;;4905074;29;20682;-81
2022/06/24 12:50:34;;;;;;;5.93;5.43;;;26.80;99.90;;;;;;4887848;29;20200;-81
2022/06/24 12:52:32;;;;;;;2.40;2.00;;;26.50;99.90;;;;;;4902629;29;20235;-81
2022/06/24 12:55:00;;;;;;;7.33;6.83;;;26.20;99.90;;;;;;4919490;29;20242;-81
2022/06/24 12:57:26;;;;;;;6.90;6.40;;;26.00;99.90;;;;;;4905695;29;20693;-81
2022/06/24 12:59:53;;;;;;;6.83;6.43;;;25.80;99.90;;;;;;4888188;29;20205;-81
2022/06/24 13:02:20;;;;;;;7.00;6.50;;;25.60;99.90;;;;;;4883878;29;20220;-81
2022/06/24 13:04:48;;;;;;;7.47;6.87;;;25.40;99.90;;;;;;4884184;29;20222;-82
2022/06/24 13:07:15;;;;;;;2.67;2.37;;;25.20;99.90;;;;;;4886121;29;20204;-81
2022/06/24 13:09:42;;;;;;;2.37;2.17;;;25.10;99.90;;;;;;4916891;29;20200;-81